sensor_id;sensor_type;location;lat;lon;timestamp;P1;durP1;ratioP1;P2;durP2;ratioP2
67595;SDS011;54410;48.694;8.934;2023-02-28T00:01:06;4.83;;;3.20;;
67595;SDS011;54410;48.694;8.934;2023-02-28T00:03:33;3.43;;;2.57;;
67595;SDS011;54410;48.694;8.934;2023-02-28T00:06:01;2.60;;;2.30;;
67595;SDS011;54410;48.694;8.934;2023-02-28T00:08:27;5.40;;;3.00;;
67595;SDS011;54410;48.694;8.934;2023-02-28T00:10:53;3.23;;;2.80;;
67595;SDS011;54410;48.694;8.934;2023-02-28T00:13:19;3.33;;;2.90;;
67595;SDS011;54410;48.694;8.934;2023-02-28T00:15:45;5.73;;;2.90;;
67595;SDS011;54410;48.694;8.934;2023-02-28T00:18:11;4.20;;;3.10;;
67595;SDS011;54410;48.694;8.934;2023-02-28T00:20:38;3.53;;;3.00;;
67595;SDS011;54410;48.694;8.934;2023-02-28T00:23:04;9.83;;;3.00;;
67595;SDS011;54410;48.694;8.934;2023-02-28T00:25:30;3.63;;;2.60;;
67595;SDS011;54410;48.694;8.934;2023-02-28T00:27:56;6.80;;;2.77;;
67595;SDS011;54410;48.694;8.934;2023-02-28T00:30:22;3.27;;;2.80;;
67595;SDS011;54410;48.694;8.934;2023-02-28T00:32:49;3.90;;;3.17;;
67595;SDS011;54410;48.694;8.934;2023-02-28T00:35:15;3.80;;;2.77;;
67595;SDS011;54410;48.694;8.934;2023-02-28T00:37:41;5.37;;;3.17;;
67595;SDS011;54410;48.694;8.934;2023-02-28T00:40:08;5.30;;;2.97;;
67595;SDS011;54410;48.694;8.934;2023-02-28T00:42:35;3.87;;;2.63;;
67595;SDS011;54410;48.694;8.934;2023-02-28T00:45:01;3.70;;;2.77;;
67595;SDS011;54410;48.694;8.934;2023-02-28T00:47:29;3.90;;;2.70;;
67595;SDS011;54410;48.694;8.934;2023-02-28T00:49:55;3.23;;;2.20;;
67595;SDS011;54410;48.694;8.934;2023-02-28T00:52:21;3.07;;;2.30;;
67595;SDS011;54410;48.694;8.934;2023-02-28T00:54:47;4.47;;;3.03;;
67595;SDS011;54410;48.694;8.934;2023-02-28T00:57:13;4.07;;;2.87;;
67595;SDS011;54410;48.694;8.934;2023-02-28T00:59:39;4.90;;;2.63;;
67595;SDS011;54410;48.694;8.934;2023-02-28T01:02:05;3.73;;;2.53;;
67595;SDS011;54410;48.694;8.934;2023-02-28T01:04:31;5.40;;;2.80;;
67595;SDS011;54410;48.694;8.934;2023-02-28T01:06:57;5.20;;;3.50;;
67595;SDS011;54410;48.694;8.934;2023-02-28T01:09:22;3.40;;;2.67;;
67595;SDS011;54410;48.694;8.934;2023-02-28T01:11:48;7.13;;;2.87;;
67595;SDS011;54410;48.694;8.934;2023-02-28T01:14:15;3.87;;;2.70;;
67595;SDS011;54410;48.694;8.934;2023-02-28T01:16:41;4.33;;;2.47;;
67595;SDS011;54410;48.694;8.934;2023-02-28T01:19:07;3.07;;;2.70;;
67595;SDS011;54410;48.694;8.934;2023-02-28T01:21:33;3.73;;;2.77;;
67595;SDS011;54410;48.694;8.934;2023-02-28T01:24:00;3.27;;;2.63;;
67595;SDS011;54410;48.694;8.934;2023-02-28T01:26:26;3.70;;;2.60;;
67595;SDS011;54410;48.694;8.934;2023-02-28T01:28:52;3.63;;;2.63;;
67595;SDS011;54410;48.694;8.934;2023-02-28T01:31:18;6.20;;;2.70;;
67595;SDS011;54410;48.694;8.934;2023-02-28T01:33:45;3.10;;;2.80;;
67595;SDS011;54410;48.694;8.934;2023-02-28T01:36:15;2.97;;;2.67;;
67595;SDS011;54410;48.694;8.934;2023-02-28T01:38:41;4.93;;;3.23;;
67595;SDS011;54410;48.694;8.934;2023-02-28T01:41:07;3.17;;;2.87;;
67595;SDS011;54410;48.694;8.934;2023-02-28T01:46:08;5.13;;;3.27;;
67595;SDS011;54410;48.694;8.934;2023-02-28T01:48:35;2.67;;;2.47;;
67595;SDS011;54410;48.694;8.934;2023-02-28T01:51:04;6.27;;;3.37;;
67595;SDS011;54410;48.694;8.934;2023-02-28T01:53:34;4.90;;;3.40;;
67595;SDS011;54410;48.694;8.934;2023-02-28T01:56:02;4.07;;;2.60;;
67595;SDS011;54410;48.694;8.934;2023-02-28T01:58:29;9.27;;;2.90;;
67595;SDS011;54410;48.694;8.934;2023-02-28T02:00:55;4.07;;;3.00;;
67595;SDS011;54410;48.694;8.934;2023-02-28T02:03:22;4.67;;;3.73;;
67595;SDS011;54410;48.694;8.934;2023-02-28T02:05:49;6.37;;;2.90;;
67595;SDS011;54410;48.694;8.934;2023-02-28T02:08:17;4.67;;;3.27;;
67595;SDS011;54410;48.694;8.934;2023-02-28T02:15:40;9.03;;;3.50;;
67595;SDS011;54410;48.694;8.934;2023-02-28T02:18:19;5.80;;;4.10;;
67595;SDS011;54410;48.694;8.934;2023-02-28T02:26:03;3.97;;;2.93;;
67595;SDS011;54410;48.694;8.934;2023-02-28T02:28:47;7.43;;;3.60;;
67595;SDS011;54410;48.694;8.934;2023-02-28T02:41:51;8.73;;;4.17;;
67595;SDS011;54410;48.694;8.934;2023-02-28T02:46:47;4.80;;;3.13;;
67595;SDS011;54410;48.694;8.934;2023-02-28T02:49:21;5.50;;;3.67;;
67595;SDS011;54410;48.694;8.934;2023-02-28T02:51:48;4.17;;;3.70;;
67595;SDS011;54410;48.694;8.934;2023-02-28T02:54:35;5.00;;;3.30;;
67595;SDS011;54410;48.694;8.934;2023-02-28T02:57:11;6.07;;;4.17;;
67595;SDS011;54410;48.694;8.934;2023-02-28T02:59:38;4.00;;;3.20;;
67595;SDS011;54410;48.694;8.934;2023-02-28T03:02:07;4.53;;;3.83;;
67595;SDS011;54410;48.694;8.934;2023-02-28T03:04:36;4.97;;;3.20;;
67595;SDS011;54410;48.694;8.934;2023-02-28T03:07:04;5.93;;;4.43;;
67595;SDS011;54410;48.694;8.934;2023-02-28T03:09:32;4.30;;;3.57;;
67595;SDS011;54410;48.694;8.934;2023-02-28T03:11:58;6.90;;;3.70;;
67595;SDS011;54410;48.694;8.934;2023-02-28T03:14:31;4.57;;;3.77;;
67595;SDS011;54410;48.694;8.934;2023-02-28T03:24:50;8.57;;;4.17;;
67595;SDS011;54410;48.694;8.934;2023-02-28T03:29:58;5.03;;;3.40;;
67595;SDS011;54410;48.694;8.934;2023-02-28T03:32:29;6.50;;;4.30;;
67595;SDS011;54410;48.694;8.934;2023-02-28T03:35:13;7.87;;;4.23;;
67595;SDS011;54410;48.694;8.934;2023-02-28T03:37:47;4.30;;;3.20;;
67595;SDS011;54410;48.694;8.934;2023-02-28T03:40:17;7.93;;;4.53;;
67595;SDS011;54410;48.694;8.934;2023-02-28T03:42:45;9.27;;;4.67;;
67595;SDS011;54410;48.694;8.934;2023-02-28T03:45:15;6.37;;;4.40;;
67595;SDS011;54410;48.694;8.934;2023-02-28T03:47:49;7.83;;;4.53;;
67595;SDS011;54410;48.694;8.934;2023-02-28T03:50:29;7.47;;;4.63;;
67595;SDS011;54410;48.694;8.934;2023-02-28T03:55:27;7.67;;;4.00;;
67595;SDS011;54410;48.694;8.934;2023-02-28T03:58:01;8.10;;;4.53;;
67595;SDS011;54410;48.694;8.934;2023-02-28T04:00:37;6.63;;;4.07;;
67595;SDS011;54410;48.694;8.934;2023-02-28T04:03:04;7.83;;;4.80;;
67595;SDS011;54410;48.694;8.934;2023-02-28T04:05:30;6.00;;;4.43;;
67595;SDS011;54410;48.694;8.934;2023-02-28T04:08:06;7.87;;;4.00;;
67595;SDS011;54410;48.694;8.934;2023-02-28T04:10:32;6.47;;;4.53;;
67595;SDS011;54410;48.694;8.934;2023-02-28T04:12:58;8.43;;;4.03;;
67595;SDS011;54410;48.694;8.934;2023-02-28T04:15:24;7.17;;;4.77;;
67595;SDS011;54410;48.694;8.934;2023-02-28T04:17:52;9.77;;;5.10;;
67595;SDS011;54410;48.694;8.934;2023-02-28T04:20:18;9.40;;;4.87;;
67595;SDS011;54410;48.694;8.934;2023-02-28T04:22:44;8.13;;;4.73;;
67595;SDS011;54410;48.694;8.934;2023-02-28T04:25:10;6.87;;;4.30;;
67595;SDS011;54410;48.694;8.934;2023-02-28T04:27:36;4.53;;;3.70;;
67595;SDS011;54410;48.694;8.934;2023-02-28T04:30:02;6.43;;;4.60;;
67595;SDS011;54410;48.694;8.934;2023-02-28T04:32:28;5.50;;;3.70;;
67595;SDS011;54410;48.694;8.934;2023-02-28T04:34:54;7.60;;;5.00;;
67595;SDS011;54410;48.694;8.934;2023-02-28T04:37:20;6.27;;;4.13;;
67595;SDS011;54410;48.694;8.934;2023-02-28T04:39:52;6.50;;;4.77;;
67595;SDS011;54410;48.694;8.934;2023-02-28T04:42:18;4.67;;;3.80;;
67595;SDS011;54410;48.694;8.934;2023-02-28T04:44:44;12.77;;;8.33;;
67595;SDS011;54410;48.694;8.934;2023-02-28T04:47:10;8.17;;;4.97;;
67595;SDS011;54410;48.694;8.934;2023-02-28T04:49:36;9.83;;;4.77;;
67595;SDS011;54410;48.694;8.934;2023-02-28T04:52:02;5.63;;;4.40;;
67595;SDS011;54410;48.694;8.934;2023-02-28T04:54:28;7.07;;;4.87;;
67595;SDS011;54410;48.694;8.934;2023-02-28T04:56:54;5.93;;;4.43;;
67595;SDS011;54410;48.694;8.934;2023-02-28T04:59:21;7.23;;;4.93;;
67595;SDS011;54410;48.694;8.934;2023-02-28T05:01:47;7.90;;;5.17;;
67595;SDS011;54410;48.694;8.934;2023-02-28T05:04:14;9.60;;;5.13;;
67595;SDS011;54410;48.694;8.934;2023-02-28T05:06:40;8.17;;;5.13;;
67595;SDS011;54410;48.694;8.934;2023-02-28T05:09:06;7.77;;;4.67;;
67595;SDS011;54410;48.694;8.934;2023-02-28T05:11:32;12.70;;;5.50;;
67595;SDS011;54410;48.694;8.934;2023-02-28T05:14:00;12.93;;;5.60;;
67595;SDS011;54410;48.694;8.934;2023-02-28T05:16:26;7.03;;;4.20;;
67595;SDS011;54410;48.694;8.934;2023-02-28T05:18:52;10.23;;;5.20;;
67595;SDS011;54410;48.694;8.934;2023-02-28T05:21:23;6.33;;;4.20;;
67595;SDS011;54410;48.694;8.934;2023-02-28T05:23:50;8.50;;;5.67;;
67595;SDS011;54410;48.694;8.934;2023-02-28T05:26:15;9.50;;;5.17;;
67595;SDS011;54410;48.694;8.934;2023-02-28T05:28:41;8.00;;;4.70;;
67595;SDS011;54410;48.694;8.934;2023-02-28T05:31:10;7.00;;;4.63;;
67595;SDS011;54410;48.694;8.934;2023-02-28T05:33:36;8.03;;;5.00;;
67595;SDS011;54410;48.694;8.934;2023-02-28T05:36:02;8.80;;;5.57;;
67595;SDS011;54410;48.694;8.934;2023-02-28T05:38:28;7.77;;;5.17;;
67595;SDS011;54410;48.694;8.934;2023-02-28T05:40:54;7.40;;;4.83;;
67595;SDS011;54410;48.694;8.934;2023-02-28T05:43:21;10.53;;;5.20;;
67595;SDS011;54410;48.694;8.934;2023-02-28T05:45:47;6.77;;;5.30;;
67595;SDS011;54410;48.694;8.934;2023-02-28T05:48:13;7.97;;;5.30;;
67595;SDS011;54410;48.694;8.934;2023-02-28T05:50:39;10.23;;;5.43;;
67595;SDS011;54410;48.694;8.934;2023-02-28T05:53:05;10.20;;;5.60;;
67595;SDS011;54410;48.694;8.934;2023-02-28T05:55:32;8.93;;;5.57;;
67595;SDS011;54410;48.694;8.934;2023-02-28T05:58:00;9.07;;;5.13;;
67595;SDS011;54410;48.694;8.934;2023-02-28T06:00:26;8.13;;;5.30;;
67595;SDS011;54410;48.694;8.934;2023-02-28T06:02:52;7.47;;;4.53;;
67595;SDS011;54410;48.694;8.934;2023-02-28T06:05:21;6.17;;;4.37;;
67595;SDS011;54410;48.694;8.934;2023-02-28T06:07:47;9.27;;;6.13;;
67595;SDS011;54410;48.694;8.934;2023-02-28T06:10:13;8.23;;;5.33;;
67595;SDS011;54410;48.694;8.934;2023-02-28T06:12:39;10.27;;;5.50;;
67595;SDS011;54410;48.694;8.934;2023-02-28T06:15:06;6.43;;;4.67;;
67595;SDS011;54410;48.694;8.934;2023-02-28T06:17:33;8.63;;;5.53;;
67595;SDS011;54410;48.694;8.934;2023-02-28T06:19:59;11.10;;;5.97;;
67595;SDS011;54410;48.694;8.934;2023-02-28T06:22:25;13.63;;;5.87;;
67595;SDS011;54410;48.694;8.934;2023-02-28T06:24:51;12.03;;;6.07;;
67595;SDS011;54410;48.694;8.934;2023-02-28T06:27:17;9.33;;;5.87;;
67595;SDS011;54410;48.694;8.934;2023-02-28T06:29:44;9.33;;;5.43;;
67595;SDS011;54410;48.694;8.934;2023-02-28T06:32:09;8.90;;;5.43;;
67595;SDS011;54410;48.694;8.934;2023-02-28T06:34:35;8.40;;;5.07;;
67595;SDS011;54410;48.694;8.934;2023-02-28T06:37:02;9.83;;;6.30;;
67595;SDS011;54410;48.694;8.934;2023-02-28T06:39:30;9.30;;;6.10;;
67595;SDS011;54410;48.694;8.934;2023-02-28T06:41:56;11.53;;;6.63;;
67595;SDS011;54410;48.694;8.934;2023-02-28T06:44:22;8.83;;;5.40;;
67595;SDS011;54410;48.694;8.934;2023-02-28T06:46:48;10.83;;;7.13;;
67595;SDS011;54410;48.694;8.934;2023-02-28T06:49:14;10.37;;;6.40;;
67595;SDS011;54410;48.694;8.934;2023-02-28T06:51:41;9.10;;;5.73;;
67595;SDS011;54410;48.694;8.934;2023-02-28T06:54:09;10.97;;;4.83;;
67595;SDS011;54410;48.694;8.934;2023-02-28T06:56:35;12.93;;;6.43;;
67595;SDS011;54410;48.694;8.934;2023-02-28T06:59:03;11.13;;;6.90;;
67595;SDS011;54410;48.694;8.934;2023-02-28T07:01:30;6.43;;;4.70;;
67595;SDS011;54410;48.694;8.934;2023-02-28T07:03:59;11.77;;;6.13;;
67595;SDS011;54410;48.694;8.934;2023-02-28T07:06:25;10.50;;;6.77;;
67595;SDS011;54410;48.694;8.934;2023-02-28T07:08:52;11.27;;;5.77;;
67595;SDS011;54410;48.694;8.934;2023-02-28T07:11:19;5.90;;;4.97;;
67595;SDS011;54410;48.694;8.934;2023-02-28T07:13:46;10.20;;;6.33;;
67595;SDS011;54410;48.694;8.934;2023-02-28T07:16:12;6.53;;;4.80;;
67595;SDS011;54410;48.694;8.934;2023-02-28T07:18:38;15.43;;;7.30;;
67595;SDS011;54410;48.694;8.934;2023-02-28T07:21:05;9.17;;;5.57;;
67595;SDS011;54410;48.694;8.934;2023-02-28T07:23:31;10.47;;;6.80;;
67595;SDS011;54410;48.694;8.934;2023-02-28T07:25:57;7.90;;;5.50;;
67595;SDS011;54410;48.694;8.934;2023-02-28T07:28:24;10.13;;;6.67;;
67595;SDS011;54410;48.694;8.934;2023-02-28T07:30:50;14.23;;;6.37;;
67595;SDS011;54410;48.694;8.934;2023-02-28T07:33:16;12.13;;;5.87;;
67595;SDS011;54410;48.694;8.934;2023-02-28T07:35:42;8.20;;;5.03;;
67595;SDS011;54410;48.694;8.934;2023-02-28T07:38:08;11.53;;;5.77;;
67595;SDS011;54410;48.694;8.934;2023-02-28T07:40:35;9.87;;;7.10;;
67595;SDS011;54410;48.694;8.934;2023-02-28T07:43:01;11.13;;;6.33;;
67595;SDS011;54410;48.694;8.934;2023-02-28T07:45:27;8.50;;;6.27;;
67595;SDS011;54410;48.694;8.934;2023-02-28T07:47:54;11.00;;;6.43;;
67595;SDS011;54410;48.694;8.934;2023-02-28T07:50:20;9.17;;;6.60;;
67595;SDS011;54410;48.694;8.934;2023-02-28T07:52:46;7.93;;;5.20;;
67595;SDS011;54410;48.694;8.934;2023-02-28T07:55:12;8.23;;;5.87;;
67595;SDS011;54410;48.694;8.934;2023-02-28T07:57:38;9.37;;;6.17;;
67595;SDS011;54410;48.694;8.934;2023-02-28T08:00:05;11.27;;;6.50;;
67595;SDS011;54410;48.694;8.934;2023-02-28T08:02:32;10.27;;;7.00;;
67595;SDS011;54410;48.694;8.934;2023-02-28T08:05:01;8.83;;;5.57;;
67595;SDS011;54410;48.694;8.934;2023-02-28T08:07:27;10.33;;;6.27;;
67595;SDS011;54410;48.694;8.934;2023-02-28T08:09:53;10.00;;;5.77;;
67595;SDS011;54410;48.694;8.934;2023-02-28T08:12:19;9.27;;;6.00;;
67595;SDS011;54410;48.694;8.934;2023-02-28T08:14:45;7.93;;;5.93;;
67595;SDS011;54410;48.694;8.934;2023-02-28T08:17:11;10.70;;;6.40;;
67595;SDS011;54410;48.694;8.934;2023-02-28T08:19:37;10.93;;;6.83;;
67595;SDS011;54410;48.694;8.934;2023-02-28T08:22:03;10.33;;;7.00;;
67595;SDS011;54410;48.694;8.934;2023-02-28T08:24:30;16.50;;;7.57;;
67595;SDS011;54410;48.694;8.934;2023-02-28T08:26:56;9.57;;;6.13;;
67595;SDS011;54410;48.694;8.934;2023-02-28T08:29:22;12.70;;;7.27;;
67595;SDS011;54410;48.694;8.934;2023-02-28T08:31:47;9.47;;;5.90;;
67595;SDS011;54410;48.694;8.934;2023-02-28T08:34:14;12.70;;;7.17;;
67595;SDS011;54410;48.694;8.934;2023-02-28T08:36:40;9.53;;;6.37;;
67595;SDS011;54410;48.694;8.934;2023-02-28T08:39:07;12.23;;;7.43;;
67595;SDS011;54410;48.694;8.934;2023-02-28T08:41:34;14.93;;;6.43;;
67595;SDS011;54410;48.694;8.934;2023-02-28T08:43:59;12.13;;;7.30;;
67595;SDS011;54410;48.694;8.934;2023-02-28T08:46:25;15.90;;;7.90;;
67595;SDS011;54410;48.694;8.934;2023-02-28T08:48:52;9.67;;;6.30;;
67595;SDS011;54410;48.694;8.934;2023-02-28T08:51:18;12.03;;;7.47;;
67595;SDS011;54410;48.694;8.934;2023-02-28T08:53:51;6.93;;;5.67;;
67595;SDS011;54410;48.694;8.934;2023-02-28T08:56:17;12.67;;;6.73;;
67595;SDS011;54410;48.694;8.934;2023-02-28T08:58:44;16.23;;;7.30;;
67595;SDS011;54410;48.694;8.934;2023-02-28T09:01:17;11.07;;;6.93;;
67595;SDS011;54410;48.694;8.934;2023-02-28T09:03:44;11.57;;;7.20;;
67595;SDS011;54410;48.694;8.934;2023-02-28T09:06:11;10.10;;;5.77;;
67595;SDS011;54410;48.694;8.934;2023-02-28T09:08:38;14.97;;;7.93;;
67595;SDS011;54410;48.694;8.934;2023-02-28T09:11:04;10.20;;;6.13;;
67595;SDS011;54410;48.694;8.934;2023-02-28T09:13:30;14.47;;;7.50;;
67595;SDS011;54410;48.694;8.934;2023-02-28T09:15:57;11.63;;;6.87;;
67595;SDS011;54410;48.694;8.934;2023-02-28T09:18:24;14.87;;;8.00;;
67595;SDS011;54410;48.694;8.934;2023-02-28T09:20:50;10.83;;;5.87;;
67595;SDS011;54410;48.694;8.934;2023-02-28T09:23:16;12.33;;;7.93;;
67595;SDS011;54410;48.694;8.934;2023-02-28T09:25:46;12.13;;;7.50;;
67595;SDS011;54410;48.694;8.934;2023-02-28T09:28:12;12.07;;;7.43;;
67595;SDS011;54410;48.694;8.934;2023-02-28T09:30:40;10.77;;;6.47;;
67595;SDS011;54410;48.694;8.934;2023-02-28T09:33:06;9.30;;;6.90;;
67595;SDS011;54410;48.694;8.934;2023-02-28T09:35:33;13.57;;;7.40;;
67595;SDS011;54410;48.694;8.934;2023-02-28T09:37:58;9.43;;;6.17;;
67595;SDS011;54410;48.694;8.934;2023-02-28T09:40:27;13.27;;;7.80;;
67595;SDS011;54410;48.694;8.934;2023-02-28T09:42:54;10.70;;;6.77;;
67595;SDS011;54410;48.694;8.934;2023-02-28T09:45:29;10.07;;;6.87;;
67595;SDS011;54410;48.694;8.934;2023-02-28T09:48:01;10.87;;;6.00;;
67595;SDS011;54410;48.694;8.934;2023-02-28T09:50:30;10.90;;;7.03;;
67595;SDS011;54410;48.694;8.934;2023-02-28T09:53:06;10.20;;;6.80;;
67595;SDS011;54410;48.694;8.934;2023-02-28T09:56:10;12.70;;;7.17;;
67595;SDS011;54410;48.694;8.934;2023-02-28T09:58:40;12.37;;;8.17;;
67595;SDS011;54410;48.694;8.934;2023-02-28T10:04:14;10.07;;;7.13;;
67595;SDS011;54410;48.694;8.934;2023-02-28T10:06:44;11.83;;;7.80;;
67595;SDS011;54410;48.694;8.934;2023-02-28T10:09:17;8.80;;;6.07;;
67595;SDS011;54410;48.694;8.934;2023-02-28T10:11:45;14.30;;;8.07;;
67595;SDS011;54410;48.694;8.934;2023-02-28T10:14:19;9.57;;;6.87;;
67595;SDS011;54410;48.694;8.934;2023-02-28T10:16:49;11.40;;;7.47;;
67595;SDS011;54410;48.694;8.934;2023-02-28T10:19:40;8.80;;;5.73;;
67595;SDS011;54410;48.694;8.934;2023-02-28T10:24:43;12.80;;;7.87;;
67595;SDS011;54410;48.694;8.934;2023-02-28T10:29:39;11.53;;;8.43;;
67595;SDS011;54410;48.694;8.934;2023-02-28T10:32:08;16.23;;;7.50;;
67595;SDS011;54410;48.694;8.934;2023-02-28T10:34:36;10.40;;;7.03;;
67595;SDS011;54410;48.694;8.934;2023-02-28T10:37:03;11.53;;;8.00;;
67595;SDS011;54410;48.694;8.934;2023-02-28T10:39:45;13.60;;;7.40;;
67595;SDS011;54410;48.694;8.934;2023-02-28T10:42:19;9.90;;;6.87;;
67595;SDS011;54410;48.694;8.934;2023-02-28T10:44:45;12.90;;;7.30;;
67595;SDS011;54410;48.694;8.934;2023-02-28T10:47:15;13.90;;;8.63;;
67595;SDS011;54410;48.694;8.934;2023-02-28T10:49:49;14.17;;;8.53;;
67595;SDS011;54410;48.694;8.934;2023-02-28T10:52:32;12.07;;;7.57;;
67595;SDS011;54410;48.694;8.934;2023-02-28T10:58:00;10.17;;;6.57;;
67595;SDS011;54410;48.694;8.934;2023-02-28T11:00:31;11.67;;;7.10;;
67595;SDS011;54410;48.694;8.934;2023-02-28T11:02:58;11.23;;;6.93;;
67595;SDS011;54410;48.694;8.934;2023-02-28T11:05:25;16.50;;;7.87;;
67595;SDS011;54410;48.694;8.934;2023-02-28T11:07:55;10.73;;;6.97;;
67595;SDS011;54410;48.694;8.934;2023-02-28T11:10:22;15.80;;;8.37;;
67595;SDS011;54410;48.694;8.934;2023-02-28T11:12:53;15.77;;;8.37;;
67595;SDS011;54410;48.694;8.934;2023-02-28T11:15:26;13.37;;;7.77;;
67595;SDS011;54410;48.694;8.934;2023-02-28T11:18:40;12.17;;;7.17;;
67595;SDS011;54410;48.694;8.934;2023-02-28T11:20:41;14.17;;;8.03;;
67595;SDS011;54410;48.694;8.934;2023-02-28T11:23:10;11.33;;;7.17;;
67595;SDS011;54410;48.694;8.934;2023-02-28T11:25:38;14.57;;;8.27;;
67595;SDS011;54410;48.694;8.934;2023-02-28T11:28:05;12.10;;;7.40;;
67595;SDS011;54410;48.694;8.934;2023-02-28T11:30:59;13.00;;;7.80;;
67595;SDS011;54410;48.694;8.934;2023-02-28T11:33:30;11.80;;;6.77;;
67595;SDS011;54410;48.694;8.934;2023-02-28T11:36:18;16.07;;;7.40;;
67595;SDS011;54410;48.694;8.934;2023-02-28T11:38:45;12.07;;;7.83;;
67595;SDS011;54410;48.694;8.934;2023-02-28T11:44:15;16.27;;;8.47;;
67595;SDS011;54410;48.694;8.934;2023-02-28T11:46:50;13.33;;;8.53;;
67595;SDS011;54410;48.694;8.934;2023-02-28T11:52:29;15.00;;;8.20;;
67595;SDS011;54410;48.694;8.934;2023-02-28T11:55:06;12.27;;;7.30;;
67595;SDS011;54410;48.694;8.934;2023-02-28T11:57:37;9.37;;;7.00;;
67595;SDS011;54410;48.694;8.934;2023-02-28T12:05:44;11.63;;;7.93;;
67595;SDS011;54410;48.694;8.934;2023-02-28T12:13:46;15.00;;;7.83;;
67595;SDS011;54410;48.694;8.934;2023-02-28T12:19:19;17.80;;;9.23;;
67595;SDS011;54410;48.694;8.934;2023-02-28T12:21:51;15.10;;;8.10;;
67595;SDS011;54410;48.694;8.934;2023-02-28T12:27:16;12.20;;;8.20;;
67595;SDS011;54410;48.694;8.934;2023-02-28T12:29:50;13.20;;;7.67;;
67595;SDS011;54410;48.694;8.934;2023-02-28T12:32:33;14.83;;;8.47;;
67595;SDS011;54410;48.694;8.934;2023-02-28T12:35:04;13.23;;;7.73;;
67595;SDS011;54410;48.694;8.934;2023-02-28T12:40:20;10.50;;;7.30;;
67595;SDS011;54410;48.694;8.934;2023-02-28T12:42:48;12.77;;;8.07;;
67595;SDS011;54410;48.694;8.934;2023-02-28T12:45:22;15.50;;;8.73;;
67595;SDS011;54410;48.694;8.934;2023-02-28T12:47:54;13.87;;;7.90;;
67595;SDS011;54410;48.694;8.934;2023-02-28T12:50:22;13.03;;;7.53;;
67595;SDS011;54410;48.694;8.934;2023-02-28T13:09:13;10.27;;;7.43;;
67595;SDS011;54410;48.694;8.934;2023-02-28T13:11:47;10.57;;;7.60;;
67595;SDS011;54410;48.694;8.934;2023-02-28T13:17:32;16.60;;;9.33;;
67595;SDS011;54410;48.694;8.934;2023-02-28T13:19:37;12.17;;;7.10;;
67595;SDS011;54410;48.694;8.934;2023-02-28T13:22:19;12.70;;;8.33;;
67595;SDS011;54410;48.694;8.934;2023-02-28T13:24:49;10.70;;;7.10;;
67595;SDS011;54410;48.694;8.934;2023-02-28T13:29:49;16.10;;;8.30;;
67595;SDS011;54410;48.694;8.934;2023-02-28T13:32:18;10.33;;;6.93;;
67595;SDS011;54410;48.694;8.934;2023-02-28T13:42:36;13.43;;;6.97;;
67595;SDS011;54410;48.694;8.934;2023-02-28T13:55:49;7.87;;;6.53;;
67595;SDS011;54410;48.694;8.934;2023-02-28T14:06:29;7.77;;;6.20;;
67595;SDS011;54410;48.694;8.934;2023-02-28T14:09:16;11.83;;;7.73;;
67595;SDS011;54410;48.694;8.934;2023-02-28T14:11:45;11.87;;;7.60;;
67595;SDS011;54410;48.694;8.934;2023-02-28T14:16:55;11.40;;;7.43;;
67595;SDS011;54410;48.694;8.934;2023-02-28T14:19:24;11.67;;;8.03;;
67595;SDS011;54410;48.694;8.934;2023-02-28T14:21:59;10.97;;;7.47;;
67595;SDS011;54410;48.694;8.934;2023-02-28T14:27:15;9.90;;;7.20;;
67595;SDS011;54410;48.694;8.934;2023-02-28T14:37:39;12.73;;;8.13;;
67595;SDS011;54410;48.694;8.934;2023-02-28T14:40:17;14.03;;;7.57;;
67595;SDS011;54410;48.694;8.934;2023-02-28T14:43:02;9.13;;;6.57;;
67595;SDS011;54410;48.694;8.934;2023-02-28T14:45:29;12.17;;;7.07;;
67595;SDS011;54410;48.694;8.934;2023-02-28T14:47:55;12.83;;;7.60;;
67595;SDS011;54410;48.694;8.934;2023-02-28T14:50:23;16.60;;;7.77;;
67595;SDS011;54410;48.694;8.934;2023-02-28T14:52:53;13.17;;;7.50;;
67595;SDS011;54410;48.694;8.934;2023-02-28T14:55:21;10.63;;;7.57;;
67595;SDS011;54410;48.694;8.934;2023-02-28T14:57:53;16.13;;;7.60;;
67595;SDS011;54410;48.694;8.934;2023-02-28T15:00:21;11.83;;;7.57;;
67595;SDS011;54410;48.694;8.934;2023-02-28T15:02:47;9.43;;;7.40;;
67595;SDS011;54410;48.694;8.934;2023-02-28T15:07:43;13.17;;;7.80;;
67595;SDS011;54410;48.694;8.934;2023-02-28T15:10:10;10.17;;;6.83;;
67595;SDS011;54410;48.694;8.934;2023-02-28T15:12:37;15.33;;;7.90;;
67595;SDS011;54410;48.694;8.934;2023-02-28T15:15:05;9.70;;;6.50;;
67595;SDS011;54410;48.694;8.934;2023-02-28T15:17:32;10.73;;;7.23;;
67595;SDS011;54410;48.694;8.934;2023-02-28T15:19:59;11.23;;;7.83;;
67595;SDS011;54410;48.694;8.934;2023-02-28T15:22:31;9.77;;;6.70;;
67595;SDS011;54410;48.694;8.934;2023-02-28T15:25:00;12.53;;;8.07;;
67595;SDS011;54410;48.694;8.934;2023-02-28T15:27:29;14.13;;;7.33;;
67595;SDS011;54410;48.694;8.934;2023-02-28T15:30:00;14.80;;;7.57;;
67595;SDS011;54410;48.694;8.934;2023-02-28T15:32:31;14.27;;;8.17;;
67595;SDS011;54410;48.694;8.934;2023-02-28T15:34:58;9.57;;;5.77;;
67595;SDS011;54410;48.694;8.934;2023-02-28T15:37:38;15.57;;;7.80;;
67595;SDS011;54410;48.694;8.934;2023-02-28T15:40:11;10.60;;;6.50;;
67595;SDS011;54410;48.694;8.934;2023-02-28T15:42:38;10.30;;;6.70;;
67595;SDS011;54410;48.694;8.934;2023-02-28T15:45:04;9.50;;;6.67;;
67595;SDS011;54410;48.694;8.934;2023-02-28T15:47:30;8.13;;;5.90;;
67595;SDS011;54410;48.694;8.934;2023-02-28T15:50:00;11.67;;;7.17;;
67595;SDS011;54410;48.694;8.934;2023-02-28T15:52:33;8.07;;;6.23;;
67595;SDS011;54410;48.694;8.934;2023-02-28T15:55:07;12.23;;;6.77;;
67595;SDS011;54410;48.694;8.934;2023-02-28T15:57:34;13.70;;;7.40;;
67595;SDS011;54410;48.694;8.934;2023-02-28T16:00:00;9.60;;;6.60;;
67595;SDS011;54410;48.694;8.934;2023-02-28T16:02:38;9.97;;;7.20;;
67595;SDS011;54410;48.694;8.934;2023-02-28T16:07:34;16.03;;;8.43;;
67595;SDS011;54410;48.694;8.934;2023-02-28T16:10:00;12.70;;;7.47;;
67595;SDS011;54410;48.694;8.934;2023-02-28T16:12:30;12.73;;;6.33;;
67595;SDS011;54410;48.694;8.934;2023-02-28T16:14:57;11.33;;;7.63;;
67595;SDS011;54410;48.694;8.934;2023-02-28T16:17:32;8.13;;;6.50;;
67595;SDS011;54410;48.694;8.934;2023-02-28T16:19:59;11.87;;;7.57;;
67595;SDS011;54410;48.694;8.934;2023-02-28T16:22:25;9.93;;;6.43;;
67595;SDS011;54410;48.694;8.934;2023-02-28T16:24:51;13.33;;;8.50;;
67595;SDS011;54410;48.694;8.934;2023-02-28T16:29:43;9.03;;;6.67;;
67595;SDS011;54410;48.694;8.934;2023-02-28T16:32:11;11.83;;;7.73;;
67595;SDS011;54410;48.694;8.934;2023-02-28T16:34:37;10.63;;;7.33;;
67595;SDS011;54410;48.694;8.934;2023-02-28T16:37:04;9.00;;;7.00;;
67595;SDS011;54410;48.694;8.934;2023-02-28T16:39:33;8.67;;;6.70;;
67595;SDS011;54410;48.694;8.934;2023-02-28T16:41:59;11.90;;;8.13;;
67595;SDS011;54410;48.694;8.934;2023-02-28T16:44:32;10.23;;;7.00;;
67595;SDS011;54410;48.694;8.934;2023-02-28T16:46:59;11.13;;;5.87;;
67595;SDS011;54410;48.694;8.934;2023-02-28T16:49:25;10.07;;;7.07;;
67595;SDS011;54410;48.694;8.934;2023-02-28T16:51:51;11.50;;;7.53;;
67595;SDS011;54410;48.694;8.934;2023-02-28T16:54:18;19.57;;;11.03;;
67595;SDS011;54410;48.694;8.934;2023-02-28T16:56:45;11.20;;;7.83;;
67595;SDS011;54410;48.694;8.934;2023-02-28T16:59:11;12.43;;;8.43;;
67595;SDS011;54410;48.694;8.934;2023-02-28T17:01:38;11.83;;;8.30;;
67595;SDS011;54410;48.694;8.934;2023-02-28T17:04:04;15.23;;;7.23;;
67595;SDS011;54410;48.694;8.934;2023-02-28T17:06:30;13.07;;;8.70;;
67595;SDS011;54410;48.694;8.934;2023-02-28T17:08:56;15.83;;;9.87;;
67595;SDS011;54410;48.694;8.934;2023-02-28T17:11:24;18.27;;;9.37;;
67595;SDS011;54410;48.694;8.934;2023-02-28T17:13:50;19.67;;;9.87;;